This is the latest recevied weather packets stored in our database for station/object KJ4UBX-11. If no packets are shown the sender has not sent any weather packets the latest 10 day(s).
| Time | Temp. | Humidity | Pressure | Rain* | Wind** | Luminosity | Snow |
|---|---|---|---|---|---|---|---|
| 1777943454 | 13.33° C | 70% | 1005.6 hPa | - | - | - | - |
| 1777942870 | 13.89° C | 69% | 1005.5 hPa | - | - | - | - |
| 1777942288 | 13.89° C | 68% | 1005.3 hPa | - | - | - | - |
| 1777941705 | 13.89° C | 69% | 1005.3 hPa | - | - | - | - |
| 1777941122 | 13.89° C | 67% | 1005 hPa | - | - | - | - |
| 1777940539 | 14.44° C | 64% | 1004.8 hPa | - | - | - | - |
| 1777939959 | 14.44° C | 64% | 1004.8 hPa | - | - | - | - |
| 1777939375 | 15° C | 62% | 1004.6 hPa | - | - | - | - |
| 1777938791 | 15.56° C | 60% | 1004.7 hPa | - | - | - | - |
| 1777937626 | 15.56° C | 58% | 1004.4 hPa | - | - | - | - |
| 1777937044 | 16.67° C | 54% | 1004.3 hPa | - | - | - | - |
| 1777936462 | 17.22° C | 53% | 1004 hPa | - | - | - | - |
| 1777935881 | 18.33° C | 51% | 1003.9 hPa | - | - | - | - |
| 1777935300 | 19.44° C | 48% | 1003.8 hPa | - | - | - | - |
| 1777934719 | 20.56° C | 45% | 1003.7 hPa | - | - | - | - |
| 1777934138 | 22.78° C | 39% | 1003.5 hPa | - | - | - | - |
| 1777933557 | 23.89° C | 34% | 1003.4 hPa | - | - | - | - |
| 1777932975 | 24.44° C | 30% | 1003.4 hPa | - | - | - | - |
| 1777932393 | 25° C | 29% | 1003.3 hPa | - | - | - | - |
| 1777931808 | 25° C | 31% | 1003.4 hPa | - | - | - | - |
| 1777931226 | 25.56° C | 29% | 1003.3 hPa | - | - | - | - |
| 1777930642 | 25° C | 30% | 1003.4 hPa | - | - | - | - |
| 1777930059 | 25.56° C | 29% | 1003.3 hPa | - | - | - | - |
| 1777929476 | 25.56° C | 28% | 1003.4 hPa | - | - | - | - |
| 1777928892 | 25.56° C | 30% | 1003.3 hPa | - | - | - | - |
* Rain since midnight (hover to see other rain measurements)
** Current wind speed in m/s (hover to see current wind gust speed)